sensor_id;sensor_type;location;lat;lon;timestamp;temperature;humidity
18894;DHT22;9579;49.488;8.226;2023-02-15T06:02:24;4.40;99.90
18894;DHT22;9579;49.488;8.226;2023-02-15T06:05:11;4.40;99.90
18894;DHT22;9579;49.488;8.226;2023-02-15T06:07:58;4.30;99.90
18894;DHT22;9579;49.488;8.226;2023-02-15T06:10:46;4.20;99.90
18894;DHT22;9579;49.488;8.226;2023-02-15T06:16:11;4.00;99.90
18894;DHT22;9579;49.488;8.226;2023-02-15T06:40:46;3.90;99.90
18894;DHT22;9579;49.488;8.226;2023-02-15T06:51:20;4.50;99.90
18894;DHT22;9579;49.488;8.226;2023-02-15T06:54:08;4.50;99.90
18894;DHT22;9579;49.488;8.226;2023-02-15T07:15:44;4.30;99.90
18894;DHT22;9579;49.488;8.226;2023-02-15T07:18:36;5.00;99.90
18894;DHT22;9579;49.488;8.226;2023-02-15T07:21:37;4.20;99.90
18894;DHT22;9579;49.488;8.226;2023-02-15T07:27:15;4.10;99.90
18894;DHT22;9579;49.488;8.226;2023-02-15T07:30:06;3.40;99.90
18894;DHT22;9579;49.488;8.226;2023-02-15T07:33:06;4.00;99.90
18894;DHT22;9579;49.488;8.226;2023-02-15T07:36:13;4.50;99.90
18894;DHT22;9579;49.488;8.226;2023-02-15T08:01:41;4.20;99.90
18894;DHT22;9579;49.488;8.226;2023-02-15T08:07:05;4.20;99.90
18894;DHT22;9579;49.488;8.226;2023-02-15T08:09:59;3.80;99.90
18894;DHT22;9579;49.488;8.226;2023-02-15T08:23:11;4.40;99.90
18894;DHT22;9579;49.488;8.226;2023-02-15T08:33:50;4.30;99.90
18894;DHT22;9579;49.488;8.226;2023-02-15T08:36:47;4.30;99.90
18894;DHT22;9579;49.488;8.226;2023-02-15T08:47:16;4.40;99.90
18894;DHT22;9579;49.488;8.226;2023-02-15T09:16:21;4.20;99.90
18894;DHT22;9579;49.488;8.226;2023-02-15T09:19:24;3.90;99.90
18894;DHT22;9579;49.488;8.226;2023-02-15T09:22:27;3.70;99.90
18894;DHT22;9579;49.488;8.226;2023-02-15T09:25:34;4.00;99.90
18894;DHT22;9579;49.488;8.226;2023-02-15T09:28:36;4.10;99.90
18894;DHT22;9579;49.488;8.226;2023-02-15T09:31:27;3.90;99.90
18894;DHT22;9579;49.488;8.226;2023-02-15T09:34:15;4.10;99.90
18894;DHT22;9579;49.488;8.226;2023-02-15T09:37:05;4.20;99.90
18894;DHT22;9579;49.488;8.226;2023-02-15T09:39:52;4.10;99.90
18894;DHT22;9579;49.488;8.226;2023-02-15T09:46:09;4.20;99.90
18894;DHT22;9579;49.488;8.226;2023-02-15T09:49:06;4.20;99.90
18894;DHT22;9579;49.488;8.226;2023-02-15T09:52:28;4.30;99.90
18894;DHT22;9579;49.488;8.226;2023-02-15T09:55:28;4.30;99.90
18894;DHT22;9579;49.488;8.226;2023-02-15T09:58:26;4.40;99.90
18894;DHT22;9579;49.488;8.226;2023-02-15T10:01:23;4.40;99.90
18894;DHT22;9579;49.488;8.226;2023-02-15T10:04:34;4.20;99.90
18894;DHT22;9579;49.488;8.226;2023-02-15T10:07:35;4.40;99.90
18894;DHT22;9579;49.488;8.226;2023-02-15T10:10:35;4.30;99.90
18894;DHT22;9579;49.488;8.226;2023-02-15T10:13:31;4.40;99.90
18894;DHT22;9579;49.488;8.226;2023-02-15T10:16:28;4.50;99.90
18894;DHT22;9579;49.488;8.226;2023-02-15T10:19:26;4.50;99.90
18894;DHT22;9579;49.488;8.226;2023-02-15T10:22:26;4.40;99.90
18894;DHT22;9579;49.488;8.226;2023-02-15T10:25:27;4.20;99.90
18894;DHT22;9579;49.488;8.226;2023-02-15T10:28:18;4.10;99.90
18894;DHT22;9579;49.488;8.226;2023-02-15T10:31:13;4.20;99.90
18894;DHT22;9579;49.488;8.226;2023-02-15T10:34:11;4.20;99.90
18894;DHT22;9579;49.488;8.226;2023-02-15T10:37:30;4.20;99.90
18894;DHT22;9579;49.488;8.226;2023-02-15T10:40:28;4.30;99.90
18894;DHT22;9579;49.488;8.226;2023-02-15T10:43:27;4.30;99.90
18894;DHT22;9579;49.488;8.226;2023-02-15T10:46:34;4.40;99.90
18894;DHT22;9579;49.488;8.226;2023-02-15T10:49:38;4.50;99.90
18894;DHT22;9579;49.488;8.226;2023-02-15T10:52:38;4.50;99.90
18894;DHT22;9579;49.488;8.226;2023-02-15T10:55:38;4.70;99.90
18894;DHT22;9579;49.488;8.226;2023-02-15T10:58:38;4.80;99.90
18894;DHT22;9579;49.488;8.226;2023-02-15T11:01:33;4.80;99.90
18894;DHT22;9579;49.488;8.226;2023-02-15T11:07:46;4.60;99.90
18894;DHT22;9579;49.488;8.226;2023-02-15T11:10:37;4.40;99.90
18894;DHT22;9579;49.488;8.226;2023-02-15T11:13:27;4.40;99.90
18894;DHT22;9579;49.488;8.226;2023-02-15T11:16:22;3.90;99.90
18894;DHT22;9579;49.488;8.226;2023-02-15T11:19:16;4.00;99.90
18894;DHT22;9579;49.488;8.226;2023-02-15T11:22:06;4.30;99.90
18894;DHT22;9579;49.488;8.226;2023-02-15T11:24:58;4.40;99.90
18894;DHT22;9579;49.488;8.226;2023-02-15T11:27:47;4.70;99.90
18894;DHT22;9579;49.488;8.226;2023-02-15T11:30:42;4.70;99.90
18894;DHT22;9579;49.488;8.226;2023-02-15T11:33:34;4.90;99.90
18894;DHT22;9579;49.488;8.226;2023-02-15T11:36:24;5.00;99.90
18894;DHT22;9579;49.488;8.226;2023-02-15T11:39:15;5.20;99.90
18894;DHT22;9579;49.488;8.226;2023-02-15T11:42:10;5.00;99.90
18894;DHT22;9579;49.488;8.226;2023-02-15T11:45:02;5.20;99.90
18894;DHT22;9579;49.488;8.226;2023-02-15T11:47:51;5.20;99.90
18894;DHT22;9579;49.488;8.226;2023-02-15T11:50:39;5.20;99.90
18894;DHT22;9579;49.488;8.226;2023-02-15T11:53:28;5.20;99.90
18894;DHT22;9579;49.488;8.226;2023-02-15T11:56:21;5.20;99.90
18894;DHT22;9579;49.488;8.226;2023-02-15T11:59:12;5.30;99.90
18894;DHT22;9579;49.488;8.226;2023-02-15T12:02:15;5.40;99.90
18894;DHT22;9579;49.488;8.226;2023-02-15T12:05:05;5.50;99.90
18894;DHT22;9579;49.488;8.226;2023-02-15T12:08:00;5.40;99.90
18894;DHT22;9579;49.488;8.226;2023-02-15T12:11:05;5.40;99.90
18894;DHT22;9579;49.488;8.226;2023-02-15T12:13:54;5.40;99.90
18894;DHT22;9579;49.488;8.226;2023-02-15T12:16:45;5.40;99.90
18894;DHT22;9579;49.488;8.226;2023-02-15T12:19:37;5.20;99.90
18894;DHT22;9579;49.488;8.226;2023-02-15T12:22:29;4.90;99.90
18894;DHT22;9579;49.488;8.226;2023-02-15T12:25:22;4.90;99.90
18894;DHT22;9579;49.488;8.226;2023-02-15T12:28:22;5.20;99.90
18894;DHT22;9579;49.488;8.226;2023-02-15T12:31:20;5.20;99.90
18894;DHT22;9579;49.488;8.226;2023-02-15T12:34:13;5.00;99.90
18894;DHT22;9579;49.488;8.226;2023-02-15T12:37:10;5.20;99.90
18894;DHT22;9579;49.488;8.226;2023-02-15T12:39:59;5.40;99.90
18894;DHT22;9579;49.488;8.226;2023-02-15T12:42:47;5.30;99.90
18894;DHT22;9579;49.488;8.226;2023-02-15T12:45:36;5.30;99.90
18894;DHT22;9579;49.488;8.226;2023-02-15T12:48:23;5.10;99.90
18894;DHT22;9579;49.488;8.226;2023-02-15T12:51:14;5.30;99.90
18894;DHT22;9579;49.488;8.226;2023-02-15T12:54:16;5.30;99.90
18894;DHT22;9579;49.488;8.226;2023-02-15T12:57:20;5.50;99.90
18894;DHT22;9579;49.488;8.226;2023-02-15T13:00:26;5.50;99.90
18894;DHT22;9579;49.488;8.226;2023-02-15T13:03:18;5.70;99.90
18894;DHT22;9579;49.488;8.226;2023-02-15T13:06:05;5.70;99.90
18894;DHT22;9579;49.488;8.226;2023-02-15T13:08:57;5.70;99.90
18894;DHT22;9579;49.488;8.226;2023-02-15T13:11:46;5.70;99.90
18894;DHT22;9579;49.488;8.226;2023-02-15T13:14:36;5.80;99.90
18894;DHT22;9579;49.488;8.226;2023-02-15T13:17:26;5.90;99.90
18894;DHT22;9579;49.488;8.226;2023-02-15T13:20:18;6.00;99.90
18894;DHT22;9579;49.488;8.226;2023-02-15T13:23:11;6.00;99.90
18894;DHT22;9579;49.488;8.226;2023-02-15T13:26:05;6.00;99.90
18894;DHT22;9579;49.488;8.226;2023-02-15T13:28:58;5.90;99.90
18894;DHT22;9579;49.488;8.226;2023-02-15T13:31:46;5.90;99.90
18894;DHT22;9579;49.488;8.226;2023-02-15T13:34:35;5.90;99.90
18894;DHT22;9579;49.488;8.226;2023-02-15T13:37:34;5.80;99.90
18894;DHT22;9579;49.488;8.226;2023-02-15T13:40:27;5.80;99.90
18894;DHT22;9579;49.488;8.226;2023-02-15T13:43:29;5.80;99.90
18894;DHT22;9579;49.488;8.226;2023-02-15T13:46:42;5.70;99.90
18894;DHT22;9579;49.488;8.226;2023-02-15T13:49:46;5.60;99.90
18894;DHT22;9579;49.488;8.226;2023-02-15T13:52:42;5.20;99.90
18894;DHT22;9579;49.488;8.226;2023-02-15T13:55:38;5.30;99.90
18894;DHT22;9579;49.488;8.226;2023-02-15T13:58:57;5.40;99.90
18894;DHT22;9579;49.488;8.226;2023-02-15T14:01:53;5.50;99.90
18894;DHT22;9579;49.488;8.226;2023-02-15T14:04:57;5.40;99.90
18894;DHT22;9579;49.488;8.226;2023-02-15T14:07:59;5.60;99.90
18894;DHT22;9579;49.488;8.226;2023-02-15T14:10:56;5.60;99.90
18894;DHT22;9579;49.488;8.226;2023-02-15T14:14:25;5.70;99.90
18894;DHT22;9579;49.488;8.226;2023-02-15T14:17:20;5.70;99.90
18894;DHT22;9579;49.488;8.226;2023-02-15T14:20:20;5.70;99.90
18894;DHT22;9579;49.488;8.226;2023-02-15T14:23:16;5.70;99.90
18894;DHT22;9579;49.488;8.226;2023-02-15T14:26:11;5.60;99.90
18894;DHT22;9579;49.488;8.226;2023-02-15T14:29:07;5.60;99.90
18894;DHT22;9579;49.488;8.226;2023-02-15T14:32:04;5.70;99.90
18894;DHT22;9579;49.488;8.226;2023-02-15T14:34:57;5.80;99.90
18894;DHT22;9579;49.488;8.226;2023-02-15T14:37:50;5.80;99.90
18894;DHT22;9579;49.488;8.226;2023-02-15T14:40:47;5.90;99.90
18894;DHT22;9579;49.488;8.226;2023-02-15T14:43:52;5.90;99.90
18894;DHT22;9579;49.488;8.226;2023-02-15T14:46:50;6.00;99.90
18894;DHT22;9579;49.488;8.226;2023-02-15T14:49:40;6.00;99.90
18894;DHT22;9579;49.488;8.226;2023-02-15T14:52:27;6.00;99.90
18894;DHT22;9579;49.488;8.226;2023-02-15T14:55:36;6.00;99.90
18894;DHT22;9579;49.488;8.226;2023-02-15T14:58:23;5.90;99.90
18894;DHT22;9579;49.488;8.226;2023-02-15T15:01:10;5.80;99.90
18894;DHT22;9579;49.488;8.226;2023-02-15T15:04:01;5.80;99.90
18894;DHT22;9579;49.488;8.226;2023-02-15T15:07:00;5.80;99.90
18894;DHT22;9579;49.488;8.226;2023-02-15T15:09:58;5.90;99.90
18894;DHT22;9579;49.488;8.226;2023-02-15T15:12:48;6.00;99.90
18894;DHT22;9579;49.488;8.226;2023-02-15T15:15:45;6.00;99.90
18894;DHT22;9579;49.488;8.226;2023-02-15T15:18:47;5.90;99.90
18894;DHT22;9579;49.488;8.226;2023-02-15T15:21:54;5.80;99.90
18894;DHT22;9579;49.488;8.226;2023-02-15T15:24:49;5.80;99.90
18894;DHT22;9579;49.488;8.226;2023-02-15T15:27:50;5.70;99.90
18894;DHT22;9579;49.488;8.226;2023-02-15T15:30:51;5.60;99.90
18894;DHT22;9579;49.488;8.226;2023-02-15T15:37:50;6.80;99.90
18894;DHT22;9579;49.488;8.226;2023-02-15T15:51:33;5.90;99.90
18894;DHT22;9579;49.488;8.226;2023-02-15T16:02:15;5.70;99.90
18894;DHT22;9579;49.488;8.226;2023-02-15T16:07:45;6.00;99.90
18894;DHT22;9579;49.488;8.226;2023-02-15T16:10:34;7.10;99.90
18894;DHT22;9579;49.488;8.226;2023-02-15T16:13:35;6.00;99.90
18894;DHT22;9579;49.488;8.226;2023-02-15T16:16:37;5.90;99.90
18894;DHT22;9579;49.488;8.226;2023-02-15T16:19:32;5.90;99.90
18894;DHT22;9579;49.488;8.226;2023-02-15T16:22:23;5.90;99.90
18894;DHT22;9579;49.488;8.226;2023-02-15T16:30:58;6.00;99.90
18894;DHT22;9579;49.488;8.226;2023-02-15T16:33:56;5.40;99.90
18894;DHT22;9579;49.488;8.226;2023-02-15T16:36:45;4.80;99.90
18894;DHT22;9579;49.488;8.226;2023-02-15T16:43:01;5.40;99.90
18894;DHT22;9579;49.488;8.226;2023-02-15T16:45:58;5.90;99.90
18894;DHT22;9579;49.488;8.226;2023-02-15T16:48:52;6.10;99.90
18894;DHT22;9579;49.488;8.226;2023-02-15T16:51:42;5.80;99.90
18894;DHT22;9579;49.488;8.226;2023-02-15T16:54:32;4.50;99.90
18894;DHT22;9579;49.488;8.226;2023-02-15T16:57:22;6.00;99.90
18894;DHT22;9579;49.488;8.226;2023-02-15T17:17:31;5.60;99.90
18894;DHT22;9579;49.488;8.226;2023-02-15T17:20:21;6.50;99.90
18894;DHT22;9579;49.488;8.226;2023-02-15T17:23:21;6.00;99.90
18894;DHT22;9579;49.488;8.226;2023-02-15T17:26:14;5.50;99.90
18894;DHT22;9579;49.488;8.226;2023-02-15T17:29:12;5.60;99.90
18894;DHT22;9579;49.488;8.226;2023-02-15T17:32:03;5.80;99.90
18894;DHT22;9579;49.488;8.226;2023-02-15T17:35:00;5.70;99.90
18894;DHT22;9579;49.488;8.226;2023-02-15T17:38:05;5.70;99.90
18894;DHT22;9579;49.488;8.226;2023-02-15T17:40:52;5.80;99.90
18894;DHT22;9579;49.488;8.226;2023-02-15T17:43:39;5.70;99.90
18894;DHT22;9579;49.488;8.226;2023-02-15T17:46:31;5.80;99.90
18894;DHT22;9579;49.488;8.226;2023-02-15T17:49:24;5.90;99.90
18894;DHT22;9579;49.488;8.226;2023-02-15T17:52:14;6.00;99.90
18894;DHT22;9579;49.488;8.226;2023-02-15T17:55:11;6.00;99.90
18894;DHT22;9579;49.488;8.226;2023-02-15T17:58:17;5.90;99.90
18894;DHT22;9579;49.488;8.226;2023-02-15T18:01:10;5.80;99.90
18894;DHT22;9579;49.488;8.226;2023-02-15T18:04:17;5.80;99.90
18894;DHT22;9579;49.488;8.226;2023-02-15T18:07:23;5.90;99.90
18894;DHT22;9579;49.488;8.226;2023-02-15T18:10:28;6.00;99.90
18894;DHT22;9579;49.488;8.226;2023-02-15T18:13:32;5.90;99.90
18894;DHT22;9579;49.488;8.226;2023-02-15T18:16:22;5.80;99.90
18894;DHT22;9579;49.488;8.226;2023-02-15T18:19:14;5.70;99.90
18894;DHT22;9579;49.488;8.226;2023-02-15T18:22:07;5.80;99.90
18894;DHT22;9579;49.488;8.226;2023-02-15T18:24:55;5.80;99.90
18894;DHT22;9579;49.488;8.226;2023-02-15T18:27:43;5.80;99.90
18894;DHT22;9579;49.488;8.226;2023-02-15T18:30:30;5.80;99.90
18894;DHT22;9579;49.488;8.226;2023-02-15T18:33:28;5.90;99.90
18894;DHT22;9579;49.488;8.226;2023-02-15T18:36:20;5.80;99.90
18894;DHT22;9579;49.488;8.226;2023-02-15T18:39:22;5.90;99.90
18894;DHT22;9579;49.488;8.226;2023-02-15T18:42:19;5.90;99.90
18894;DHT22;9579;49.488;8.226;2023-02-15T18:45:14;5.80;99.90
18894;DHT22;9579;49.488;8.226;2023-02-15T18:48:01;5.80;99.90
18894;DHT22;9579;49.488;8.226;2023-02-15T18:50:50;5.70;99.90
18894;DHT22;9579;49.488;8.226;2023-02-15T18:53:37;5.70;99.90
18894;DHT22;9579;49.488;8.226;2023-02-15T18:56:24;5.70;99.90
18894;DHT22;9579;49.488;8.226;2023-02-15T18:59:15;5.70;99.90
18894;DHT22;9579;49.488;8.226;2023-02-15T19:02:05;5.70;99.90
18894;DHT22;9579;49.488;8.226;2023-02-15T19:04:55;5.70;99.90
18894;DHT22;9579;49.488;8.226;2023-02-15T19:07:43;5.60;99.90
18894;DHT22;9579;49.488;8.226;2023-02-15T19:10:33;5.60;99.90
18894;DHT22;9579;49.488;8.226;2023-02-15T19:13:21;5.60;99.90
18894;DHT22;9579;49.488;8.226;2023-02-15T19:16:17;5.50;99.90
18894;DHT22;9579;49.488;8.226;2023-02-15T19:19:05;5.60;99.90
18894;DHT22;9579;49.488;8.226;2023-02-15T19:21:53;5.50;99.90
18894;DHT22;9579;49.488;8.226;2023-02-15T19:24:42;5.50;99.90
18894;DHT22;9579;49.488;8.226;2023-02-15T19:27:32;5.60;99.90
18894;DHT22;9579;49.488;8.226;2023-02-15T19:30:22;5.40;99.90
18894;DHT22;9579;49.488;8.226;2023-02-15T19:33:15;5.20;99.90
18894;DHT22;9579;49.488;8.226;2023-02-15T19:36:04;5.30;99.90
18894;DHT22;9579;49.488;8.226;2023-02-15T19:38:53;5.40;99.90
18894;DHT22;9579;49.488;8.226;2023-02-15T19:41:40;5.40;99.90
18894;DHT22;9579;49.488;8.226;2023-02-15T19:44:27;5.50;99.90
18894;DHT22;9579;49.488;8.226;2023-02-15T19:47:15;5.50;99.90
18894;DHT22;9579;49.488;8.226;2023-02-15T19:50:04;5.60;99.90
18894;DHT22;9579;49.488;8.226;2023-02-15T19:52:52;5.50;99.90
18894;DHT22;9579;49.488;8.226;2023-02-15T19:55:39;5.40;99.90
18894;DHT22;9579;49.488;8.226;2023-02-15T19:58:26;5.40;99.90
18894;DHT22;9579;49.488;8.226;2023-02-15T20:01:13;5.40;99.90
18894;DHT22;9579;49.488;8.226;2023-02-15T20:04:00;5.40;99.90
18894;DHT22;9579;49.488;8.226;2023-02-15T20:06:49;5.40;99.90
18894;DHT22;9579;49.488;8.226;2023-02-15T20:09:37;5.40;99.90
18894;DHT22;9579;49.488;8.226;2023-02-15T20:12:26;5.30;99.90
18894;DHT22;9579;49.488;8.226;2023-02-15T20:15:19;5.30;99.90
18894;DHT22;9579;49.488;8.226;2023-02-15T20:18:07;5.40;99.90
18894;DHT22;9579;49.488;8.226;2023-02-15T20:20:54;5.40;99.90
18894;DHT22;9579;49.488;8.226;2023-02-15T20:23:43;5.50;99.90
18894;DHT22;9579;49.488;8.226;2023-02-15T20:26:31;5.40;99.90
18894;DHT22;9579;49.488;8.226;2023-02-15T20:29:19;5.50;99.90
18894;DHT22;9579;49.488;8.226;2023-02-15T20:32:08;5.50;99.90
18894;DHT22;9579;49.488;8.226;2023-02-15T20:34:55;5.40;99.90
18894;DHT22;9579;49.488;8.226;2023-02-15T20:37:43;5.50;99.90
18894;DHT22;9579;49.488;8.226;2023-02-15T20:40:33;5.60;99.90
18894;DHT22;9579;49.488;8.226;2023-02-15T20:43:21;5.60;99.90
18894;DHT22;9579;49.488;8.226;2023-02-15T20:46:08;5.50;99.90
18894;DHT22;9579;49.488;8.226;2023-02-15T20:48:55;5.50;99.90
18894;DHT22;9579;49.488;8.226;2023-02-15T20:51:42;5.50;99.90
18894;DHT22;9579;49.488;8.226;2023-02-15T20:54:33;5.40;99.90
18894;DHT22;9579;49.488;8.226;2023-02-15T20:57:21;5.40;99.90
18894;DHT22;9579;49.488;8.226;2023-02-15T21:00:13;5.50;99.90
18894;DHT22;9579;49.488;8.226;2023-02-15T21:03:00;5.50;99.90
18894;DHT22;9579;49.488;8.226;2023-02-15T21:05:47;5.40;99.90
18894;DHT22;9579;49.488;8.226;2023-02-15T21:08:35;5.40;99.90
18894;DHT22;9579;49.488;8.226;2023-02-15T21:11:22;5.50;99.90
18894;DHT22;9579;49.488;8.226;2023-02-15T21:14:15;5.40;99.90
18894;DHT22;9579;49.488;8.226;2023-02-15T21:17:03;5.40;99.90
18894;DHT22;9579;49.488;8.226;2023-02-15T21:19:50;5.50;99.90
18894;DHT22;9579;49.488;8.226;2023-02-15T21:22:37;5.50;99.90
18894;DHT22;9579;49.488;8.226;2023-02-15T21:25:29;5.40;99.90
18894;DHT22;9579;49.488;8.226;2023-02-15T21:28:18;5.40;99.90
18894;DHT22;9579;49.488;8.226;2023-02-15T21:31:14;5.30;99.90
18894;DHT22;9579;49.488;8.226;2023-02-15T21:34:01;5.30;99.90
18894;DHT22;9579;49.488;8.226;2023-02-15T21:36:49;5.30;99.90
18894;DHT22;9579;49.488;8.226;2023-02-15T21:39:36;5.20;99.90
18894;DHT22;9579;49.488;8.226;2023-02-15T21:42:23;5.20;99.90
18894;DHT22;9579;49.488;8.226;2023-02-15T21:45:39;5.10;99.90
18894;DHT22;9579;49.488;8.226;2023-02-15T21:48:45;5.20;99.90
18894;DHT22;9579;49.488;8.226;2023-02-15T21:51:33;5.10;99.90
18894;DHT22;9579;49.488;8.226;2023-02-15T21:54:37;5.20;99.90
18894;DHT22;9579;49.488;8.226;2023-02-15T21:57:25;5.10;99.90
18894;DHT22;9579;49.488;8.226;2023-02-15T22:00:14;5.10;99.90
18894;DHT22;9579;49.488;8.226;2023-02-15T22:03:04;5.10;99.90
18894;DHT22;9579;49.488;8.226;2023-02-15T22:05:52;5.10;99.90
18894;DHT22;9579;49.488;8.226;2023-02-15T22:08:39;5.10;99.90
18894;DHT22;9579;49.488;8.226;2023-02-15T22:11:28;5.20;99.90
18894;DHT22;9579;49.488;8.226;2023-02-15T22:14:32;5.20;99.90
18894;DHT22;9579;49.488;8.226;2023-02-15T22:17:23;5.30;99.90
18894;DHT22;9579;49.488;8.226;2023-02-15T22:20:13;5.20;99.90
18894;DHT22;9579;49.488;8.226;2023-02-15T22:23:02;5.20;99.90
18894;DHT22;9579;49.488;8.226;2023-02-15T22:25:51;5.20;99.90
18894;DHT22;9579;49.488;8.226;2023-02-15T22:28:41;5.20;99.90
18894;DHT22;9579;49.488;8.226;2023-02-15T22:31:28;5.20;99.90
18894;DHT22;9579;49.488;8.226;2023-02-15T22:34:24;5.20;99.90
18894;DHT22;9579;49.488;8.226;2023-02-15T22:37:12;5.10;99.90
18894;DHT22;9579;49.488;8.226;2023-02-15T22:40:01;5.10;99.90
18894;DHT22;9579;49.488;8.226;2023-02-15T22:42:49;5.20;99.90
18894;DHT22;9579;49.488;8.226;2023-02-15T22:45:36;5.00;99.90
18894;DHT22;9579;49.488;8.226;2023-02-15T22:48:23;4.90;99.90
18894;DHT22;9579;49.488;8.226;2023-02-15T22:51:11;4.90;99.90
18894;DHT22;9579;49.488;8.226;2023-02-15T22:53:59;5.00;99.90
18894;DHT22;9579;49.488;8.226;2023-02-15T22:56:49;5.00;99.90
18894;DHT22;9579;49.488;8.226;2023-02-15T22:59:36;5.10;99.90
18894;DHT22;9579;49.488;8.226;2023-02-15T23:02:23;5.10;99.90
18894;DHT22;9579;49.488;8.226;2023-02-15T23:05:17;5.00;99.90
18894;DHT22;9579;49.488;8.226;2023-02-15T23:08:05;5.00;99.90
18894;DHT22;9579;49.488;8.226;2023-02-15T23:10:54;4.90;99.90
18894;DHT22;9579;49.488;8.226;2023-02-15T23:13:43;4.80;99.90
18894;DHT22;9579;49.488;8.226;2023-02-15T23:16:30;4.80;99.90
18894;DHT22;9579;49.488;8.226;2023-02-15T23:19:19;4.60;99.90
18894;DHT22;9579;49.488;8.226;2023-02-15T23:22:09;4.20;99.90
18894;DHT22;9579;49.488;8.226;2023-02-15T23:24:57;4.10;99.90
18894;DHT22;9579;49.488;8.226;2023-02-15T23:27:44;4.20;99.90
